Time;durP1;ratioP1;P1;durP2;ratioP2;P2;SDS_P1;SDS_P2;PMS_P1;PMS_P2;Temp;Humidity;BMP_temperature;BMP_pressure;BME280_temperature;BME280_humidity;BME280_pressure;Samples;Min_cycle;Max_cycle;Signal;HPM_P1;HPM_P2
2021/08/11 00:00:51;;;;;;;;;;;16.60;99.90;;;;;;5055585;28;19909;-79
2021/08/11 00:03:17;;;;;;;;;;;16.60;99.90;;;;;;5054899;28;19905;-79
2021/08/11 00:05:43;;;;;;;;;;;16.60;99.90;;;;;;5056779;28;19968;-79
2021/08/11 00:08:08;;;;;;;;;;;16.60;99.90;;;;;;5056751;28;19905;-79
2021/08/11 00:10:34;;;;;;;;;;;16.50;99.90;;;;;;5058806;28;19916;-82
2021/08/11 00:12:59;;;;;;;;;;;16.50;99.90;;;;;;5056530;28;19912;-79
2021/08/11 00:15:25;;;;;;;;;;;16.50;99.90;;;;;;5057970;28;20188;-80
2021/08/11 00:17:50;;;;;;;;;;;16.50;99.90;;;;;;5056258;28;19909;-80
2021/08/11 00:20:16;;;;;;;;;;;16.50;99.90;;;;;;5056650;28;19931;-80
2021/08/11 00:22:41;;;;;;;;;;;16.40;99.90;;;;;;5057324;28;20395;-80
2021/08/11 00:25:07;;;;;;;;;;;16.40;99.90;;;;;;5056553;28;19904;-80
2021/08/11 00:27:32;;;;;;;;;;;16.30;99.90;;;;;;5056202;28;19927;-80
2021/08/11 00:30:00;;;;;;;;;;;16.30;99.90;;;;;;5056836;28;20007;-80
2021/08/11 00:32:26;;;;;;;;;;;16.30;99.90;;;;;;5056650;28;19999;-80
2021/08/11 00:34:51;;;;;;;;;;;16.20;99.90;;;;;;5056767;28;19955;-79
2021/08/11 00:37:17;;;;;;;;;;;16.20;99.90;;;;;;5058359;28;19936;-79
2021/08/11 00:39:43;;;;;;;;;;;16.20;99.90;;;;;;5058243;28;19904;-79
2021/08/11 00:42:08;;;;;;;;;;;16.20;99.90;;;;;;5056839;28;20192;-79
2021/08/11 00:44:34;;;;;;;;;;;16.10;99.90;;;;;;5056725;28;19911;-79
2021/08/11 00:46:59;;;;;;;;;;;16.10;99.90;;;;;;5057008;28;19912;-79
2021/08/11 00:49:25;;;;;;;;;;;16.10;99.90;;;;;;5056064;28;19970;-79
2021/08/11 00:51:52;;;;;;;;;;;16.10;99.90;;;;;;5056495;28;20342;-79
2021/08/11 00:54:18;;;;;;;;;;;16.00;99.90;;;;;;5056543;28;19996;-79
2021/08/11 00:56:48;;;;;;;;;;;16.00;99.90;;;;;;5056291;28;19940;-79
2021/08/11 00:59:16;;;;;;;;;;;16.00;99.90;;;;;;5055977;28;19905;-79
2021/08/11 01:01:42;;;;;;;;;;;15.90;99.90;;;;;;5055858;28;19951;-79
2021/08/11 01:04:10;;;;;;;;;;;15.90;99.90;;;;;;5057743;28;19960;-79
2021/08/11 01:06:36;;;;;;;;;;;15.90;99.90;;;;;;5056185;28;19909;-79
2021/08/11 01:09:02;;;;;;;;;;;15.90;99.90;;;;;;5057216;28;20023;-79
2021/08/11 01:11:28;;;;;;;;;;;15.90;99.90;;;;;;5055056;28;19943;-79
2021/08/11 01:13:54;;;;;;;;;;;15.80;99.90;;;;;;5055305;28;19940;-79
2021/08/11 01:16:21;;;;;;;;;;;15.80;99.90;;;;;;5055661;28;19912;-79
2021/08/11 01:18:46;;;;;;;;;;;15.80;99.90;;;;;;5056072;28;19955;-79
2021/08/11 01:21:14;;;;;;;;;;;15.80;99.90;;;;;;5058152;28;20353;-80
2021/08/11 01:23:44;;;;;;;;;;;15.70;99.90;;;;;;5056804;28;19916;-80
2021/08/11 01:26:29;;;;;;;;;;;15.70;99.90;;;;;;5056867;28;19916;-80
2021/08/11 01:29:18;;;;;;;;;;;15.70;99.90;;;;;;5055384;28;19911;-80
2021/08/11 01:31:47;;;;;;;;;;;15.60;99.90;;;;;;5050261;28;19905;-80
2021/08/11 01:34:43;;;;;;;;;;;15.60;99.90;;;;;;5056006;28;19905;-79
2021/08/11 01:37:09;;;;;;;;;;;15.60;99.90;;;;;;5047034;28;19915;-80
2021/08/11 01:39:38;;;;;;;;;;;15.60;99.90;;;;;;5055666;28;20015;-80
2021/08/11 01:42:09;;;;;;;;;;;15.60;99.90;;;;;;5056056;28;19909;-80
2021/08/11 01:44:37;;;;;;;;;;;15.60;99.90;;;;;;5057143;28;19952;-80
2021/08/11 01:47:03;;;;;;;;;;;15.60;99.90;;;;;;5056425;28;20272;-80
2021/08/11 01:49:30;;;;;;;;;;;15.50;99.90;;;;;;5055995;28;19970;-80
2021/08/11 01:51:56;;;;;;;;;;;15.50;99.90;;;;;;5056223;28;20209;-80
2021/08/11 01:54:22;;;;;;;;;;;15.40;99.90;;;;;;5056094;28;20208;-80
2021/08/11 01:56:48;;;;;;;;;;;15.20;99.90;;;;;;5056108;28;19908;-80
2021/08/11 01:59:15;;;;;;;;;;;15.20;99.90;;;;;;5056137;28;19927;-80
2021/08/11 02:01:41;;;;;;;;;;;15.10;99.90;;;;;;5057749;28;19987;-80
2021/08/11 02:04:07;;;;;;;;;;;15.00;99.90;;;;;;5056712;28;19904;-81
2021/08/11 02:06:34;;;;;;;;;;;14.90;99.90;;;;;;5058918;28;19904;-80
2021/08/11 02:09:00;;;;;;;;;;;14.80;99.90;;;;;;5060337;28;20316;-80
2021/08/11 02:11:26;;;;;;;;;;;14.70;99.90;;;;;;5061312;28;19905;-80
2021/08/11 02:13:51;;;;;;;;;;;14.70;99.90;;;;;;5060166;28;20265;-80
2021/08/11 02:16:18;;;;;;;;;;;14.70;99.90;;;;;;5060322;28;19908;-81
2021/08/11 02:18:43;;;;;;;;;;;14.70;99.90;;;;;;5059359;28;19908;-80
2021/08/11 02:21:09;;;;;;;;;;;14.70;99.90;;;;;;5060731;28;20042;-80
2021/08/11 02:23:34;;;;;;;;;;;14.60;99.90;;;;;;5060829;28;19908;-80
2021/08/11 02:26:03;;;;;;;;;;;14.60;99.90;;;;;;5061065;28;19911;-80
2021/08/11 02:28:34;;;;;;;;;;;14.50;99.90;;;;;;5060468;28;20387;-80
2021/08/11 02:31:15;;;;;;;;;;;14.50;99.90;;;;;;5061398;28;19917;-80
2021/08/11 02:33:52;;;;;;;;;;;14.50;99.90;;;;;;5073342;28;19912;-80
2021/08/11 02:36:21;;;;;;;;;;;14.50;99.90;;;;;;5059538;28;19915;-80
2021/08/11 02:38:47;;;;;;;;;;;14.50;99.90;;;;;;5057623;28;19912;-80
2021/08/11 02:41:14;;;;;;;;;;;14.50;99.90;;;;;;5055551;28;20042;-80
2021/08/11 02:43:49;;;;;;;;;;;14.50;99.90;;;;;;5056192;28;20358;-80
2021/08/11 02:46:16;;;;;;;;;;;14.40;99.90;;;;;;5057852;28;19951;-80
2021/08/11 02:48:43;;;;;;;;;;;14.50;99.90;;;;;;5057844;28;19951;-80
2021/08/11 02:51:09;;;;;;;;;;;14.50;99.90;;;;;;5057727;28;19905;-80
2021/08/11 02:53:36;;;;;;;;;;;14.50;99.90;;;;;;5057300;28;20285;-80
2021/08/11 02:56:02;;;;;;;;;;;14.40;99.90;;;;;;5057566;28;20499;-80
2021/08/11 02:58:28;;;;;;;;;;;14.30;99.90;;;;;;5057657;28;19959;-80
2021/08/11 03:00:54;;;;;;;;;;;14.20;99.90;;;;;;5058735;28;19935;-81
2021/08/11 03:03:20;;;;;;;;;;;14.20;99.90;;;;;;5060927;28;19904;-81
2021/08/11 03:05:45;;;;;;;;;;;14.10;99.90;;;;;;5059966;28;19911;-81
2021/08/11 03:08:11;;;;;;;;;;;14.10;99.90;;;;;;5059838;28;20285;-80
2021/08/11 03:10:40;;;;;;;;;;;14.00;99.90;;;;;;5059836;28;20364;-81
2021/08/11 03:13:06;;;;;;;;;;;13.80;99.90;;;;;;5059891;28;19904;-81
2021/08/11 03:15:32;;;;;;;;;;;13.80;99.90;;;;;;5060002;28;19917;-81
2021/08/11 03:17:58;;;;;;;;;;;13.80;99.90;;;;;;5059322;28;19908;-81
2021/08/11 03:20:23;;;;;;;;;;;13.70;99.90;;;;;;5059274;28;20385;-81
2021/08/11 03:22:49;;;;;;;;;;;13.60;99.90;;;;;;5059361;28;19908;-81
2021/08/11 03:25:14;;;;;;;;;;;13.60;99.90;;;;;;5059997;28;19909;-81
2021/08/11 03:27:40;;;;;;;;;;;13.60;99.90;;;;;;5059451;28;19911;-81
2021/08/11 03:30:06;;;;;;;;;;;13.60;99.90;;;;;;5059765;28;19905;-81
2021/08/11 03:32:31;;;;;;;;;;;13.60;99.90;;;;;;5059495;28;19912;-81
2021/08/11 03:34:58;;;;;;;;;;;13.70;99.90;;;;;;5059464;28;19905;-81
2021/08/11 03:37:24;;;;;;;;;;;13.70;99.90;;;;;;5060447;28;20438;-81
2021/08/11 03:39:50;;;;;;;;;;;13.70;99.90;;;;;;5059740;28;19948;-81
2021/08/11 03:42:15;;;;;;;;;;;13.70;99.90;;;;;;5059818;28;19940;-81
2021/08/11 03:44:41;;;;;;;;;;;13.80;99.90;;;;;;5060310;28;20322;-81
2021/08/11 03:47:06;;;;;;;;;;;13.80;99.90;;;;;;5060471;28;19909;-81
2021/08/11 03:49:32;;;;;;;;;;;13.80;99.90;;;;;;5058910;28;19905;-81
2021/08/11 03:51:57;;;;;;;;;;;13.90;99.90;;;;;;5059384;28;19908;-81
2021/08/11 03:54:23;;;;;;;;;;;13.80;99.90;;;;;;5059811;28;19955;-81
2021/08/11 03:56:48;;;;;;;;;;;13.80;99.90;;;;;;5058217;28;19908;-81
2021/08/11 03:59:14;;;;;;;;;;;13.80;99.90;;;;;;5058305;28;19950;-81
2021/08/11 04:01:39;;;;;;;;;;;13.70;99.90;;;;;;5058885;28;19913;-81
2021/08/11 04:04:06;;;;;;;;;;;13.60;99.90;;;;;;5058264;28;19909;-81
2021/08/11 04:06:32;;;;;;;;;;;13.60;99.90;;;;;;5058311;28;19928;-82
2021/08/11 04:08:57;;;;;;;;;;;13.60;99.90;;;;;;5059864;28;19905;-81
2021/08/11 04:11:23;;;;;;;;;;;13.70;99.90;;;;;;5058249;28;20354;-81
2021/08/11 04:13:48;;;;;;;;;;;13.80;99.90;;;;;;5057789;28;20405;-81
2021/08/11 04:16:14;;;;;;;;;;;13.90;99.90;;;;;;5058370;28;19968;-81
2021/08/11 04:18:39;;;;;;;;;;;13.90;99.90;;;;;;5058433;28;19976;-82
2021/08/11 04:21:05;;;;;;;;;;;13.90;99.90;;;;;;5040619;28;20311;-81
2021/08/11 04:23:31;;;;;;;;;;;13.80;99.90;;;;;;5057946;28;20011;-81
2021/08/11 04:25:56;;;;;;;;;;;13.80;99.90;;;;;;5058277;28;19912;-81
2021/08/11 04:28:22;;;;;;;;;;;13.90;99.90;;;;;;5058558;28;19971;-81
2021/08/11 04:30:47;;;;;;;;;;;13.80;99.90;;;;;;5058172;28;19904;-81
2021/08/11 04:33:13;;;;;;;;;;;13.70;99.90;;;;;;5058091;28;19911;-82
2021/08/11 04:35:39;;;;;;;;;;;13.80;99.90;;;;;;5057340;28;20020;-82
2021/08/11 04:38:05;;;;;;;;;;;13.70;99.90;;;;;;5056927;28;19974;-81
2021/08/11 04:40:30;;;;;;;;;;;13.70;99.90;;;;;;5057270;28;20393;-81
2021/08/11 04:42:56;;;;;;;;;;;13.70;99.90;;;;;;5058780;28;19999;-81
2021/08/11 04:45:21;;;;;;;;;;;13.70;99.90;;;;;;5057610;28;20328;-81
2021/08/11 04:47:49;;;;;;;;;;;13.90;99.90;;;;;;5057801;28;19905;-81
2021/08/11 04:50:14;;;;;;;;;;;13.80;99.90;;;;;;5056749;28;19908;-81
2021/08/11 04:52:40;;;;;;;;;;;13.80;99.90;;;;;;5057552;28;19956;-81
2021/08/11 04:55:06;;;;;;;;;;;13.90;99.90;;;;;;5041110;28;19908;-81
2021/08/11 04:57:32;;;;;;;;;;;13.80;99.90;;;;;;5057137;28;19909;-81
2021/08/11 04:59:57;;;;;;;;;;;13.80;99.90;;;;;;5056814;28;19904;-81
2021/08/11 05:02:23;;;;;;;;;;;13.70;99.90;;;;;;5056611;28;19975;-81
2021/08/11 05:04:48;;;;;;;;;;;13.70;99.90;;;;;;5057551;28;19927;-81
2021/08/11 05:07:14;;;;;;;;;;;13.70;99.90;;;;;;5056648;28;19939;-81
2021/08/11 05:09:39;;;;;;;;;;;13.70;99.90;;;;;;5057076;28;19916;-81
2021/08/11 05:12:06;;;;;;;;;;;13.80;99.90;;;;;;5057633;28;19912;-81
2021/08/11 05:14:35;;;;;;;;;;;13.80;99.90;;;;;;5056575;28;19916;-81
2021/08/11 05:17:00;;;;;;;;;;;13.80;99.90;;;;;;5057590;28;19909;-81
2021/08/11 05:19:26;;;;;;;;;;;13.80;99.90;;;;;;5057336;28;20004;-82
2021/08/11 05:21:51;;;;;;;;;;;13.80;99.90;;;;;;5057970;28;19905;-81
2021/08/11 05:24:18;;;;;;;;;;;13.70;99.90;;;;;;5057596;28;19904;-81
2021/08/11 05:26:45;;;;;;;;;;;13.70;99.90;;;;;;5057536;28;19909;-81
2021/08/11 05:29:18;;;;;;;;;;;13.70;99.90;;;;;;5058058;28;19917;-80
2021/08/11 05:31:43;;;;;;;;;;;13.70;99.90;;;;;;5057960;28;19905;-80
2021/08/11 05:34:10;;;;;;;;;;;13.80;99.90;;;;;;5059365;28;19911;-81
2021/08/11 05:36:36;;;;;;;;;;;13.90;99.90;;;;;;5057163;28;19905;-80
2021/08/11 05:39:01;;;;;;;;;;;14.00;99.90;;;;;;5058749;28;19911;-81
2021/08/11 05:41:27;;;;;;;;;;;14.00;99.90;;;;;;5058326;28;19912;-81
2021/08/11 05:43:52;;;;;;;;;;;14.00;99.90;;;;;;5060340;28;19916;-81
2021/08/11 05:46:18;;;;;;;;;;;14.20;99.90;;;;;;5060475;28;19944;-81
2021/08/11 05:48:43;;;;;;;;;;;14.30;99.90;;;;;;5060928;28;20336;-81
2021/08/11 05:51:09;;;;;;;;;;;14.30;99.90;;;;;;5061325;28;19990;-82
2021/08/11 05:53:34;;;;;;;;;;;14.30;99.90;;;;;;5062732;28;19948;-81
2021/08/11 05:56:00;;;;;;;;;;;14.40;99.90;;;;;;5076472;28;19921;-81
2021/08/11 05:58:25;;;;;;;;;;;14.40;99.90;;;;;;5057526;28;19916;-81
2021/08/11 06:00:51;;;;;;;;;;;14.50;99.90;;;;;;5057761;28;19912;-81
2021/08/11 06:03:16;;;;;;;;;;;14.50;99.90;;;;;;5058069;28;19908;-81
2021/08/11 06:05:42;;;;;;;;;;;14.50;99.90;;;;;;5057637;28;19947;-82
2021/08/11 06:08:07;;;;;;;;;;;14.50;99.90;;;;;;5059315;28;19904;-82
2021/08/11 06:10:33;;;;;;;;;;;14.50;99.90;;;;;;5058313;28;19904;-82
2021/08/11 06:12:59;;;;;;;;;;;14.60;99.90;;;;;;5060200;28;20297;-82
2021/08/11 06:15:24;;;;;;;;;;;14.60;99.90;;;;;;5059042;28;20497;-82
2021/08/11 06:17:50;;;;;;;;;;;14.60;99.90;;;;;;5059915;28;19916;-83
2021/08/11 06:20:17;;;;;;;;;;;14.70;99.90;;;;;;5059485;28;19944;-83
2021/08/11 06:22:43;;;;;;;;;;;14.80;99.90;;;;;;5058116;28;19905;-82
2021/08/11 06:25:09;;;;;;;;;;;14.90;99.90;;;;;;5059620;28;19954;-83
2021/08/11 06:27:35;;;;;;;;;;;15.00;99.90;;;;;;5058902;28;19905;-82
2021/08/11 06:30:00;;;;;;;;;;;15.00;99.90;;;;;;5060985;28;19912;-82
2021/08/11 06:32:26;;;;;;;;;;;15.10;99.90;;;;;;5060621;28;19905;-82
2021/08/11 06:34:51;;;;;;;;;;;15.20;99.90;;;;;;5060341;28;19904;-81
2021/08/11 06:37:17;;;;;;;;;;;15.20;99.90;;;;;;5062437;28;20021;-81
2021/08/11 06:39:42;;;;;;;;;;;15.30;99.90;;;;;;5059989;28;19999;-81
2021/08/11 06:42:08;;;;;;;;;;;15.30;99.90;;;;;;5059963;28;19911;-81
2021/08/11 06:44:33;;;;;;;;;;;15.40;99.90;;;;;;5060795;28;19912;-82
2021/08/11 06:46:59;;;;;;;;;;;15.40;99.90;;;;;;5059945;28;20098;-81
2021/08/11 06:49:24;;;;;;;;;;;15.60;99.90;;;;;;5058807;28;19966;-81
2021/08/11 06:51:50;;;;;;;;;;;15.70;99.90;;;;;;5059245;28;19909;-81
2021/08/11 06:54:15;;;;;;;;;;;15.60;99.90;;;;;;5060278;28;19904;-81
2021/08/11 06:56:41;;;;;;;;;;;15.70;99.90;;;;;;5059355;28;19908;-81
2021/08/11 06:59:07;;;;;;;;;;;15.70;99.90;;;;;;5059611;28;20277;-81
2021/08/11 07:01:32;;;;;;;;;;;15.80;99.90;;;;;;5059694;28;19904;-81
2021/08/11 07:03:58;;;;;;;;;;;16.00;99.90;;;;;;5058679;28;19912;-81
2021/08/11 07:06:23;;;;;;;;;;;16.10;99.90;;;;;;5059645;28;19905;-81
2021/08/11 07:08:49;;;;;;;;;;;16.20;99.90;;;;;;5057977;28;19909;-81
2021/08/11 07:11:15;;;;;;;;;;;16.40;99.90;;;;;;5058960;28;20333;-81
2021/08/11 07:13:40;;;;;;;;;;;16.70;99.90;;;;;;5058389;28;19946;-80
2021/08/11 07:16:06;;;;;;;;;;;17.60;99.90;;;;;;5057603;28;20373;-80
2021/08/11 07:18:31;;;;;;;;;;;18.30;99.90;;;;;;5056709;28;19909;-81
2021/08/11 07:20:58;;;;;;;;;;;18.50;99.90;;;;;;5057389;28;19904;-80
2021/08/11 07:23:23;;;;;;;;;;;19.00;99.90;;;;;;5057131;28;20266;-81
2021/08/11 07:25:49;;;;;;;;;;;19.60;99.90;;;;;;5058621;28;19905;-81
2021/08/11 07:28:14;;;;;;;;;;;20.10;99.90;;;;;;5057893;28;19905;-82
2021/08/11 07:30:41;;;;;;;;;;;19.80;99.90;;;;;;5057222;28;19909;-81
2021/08/11 07:33:08;;;;;;;;;;;20.30;99.90;;;;;;5057157;28;19905;-80
2021/08/11 07:35:37;;;;;;;;;;;21.00;99.90;;;;;;5055775;28;19958;-80
2021/08/11 07:38:03;;;;;;;;;;;21.90;99.90;;;;;;5057928;28;19962;-81
2021/08/11 07:40:29;;;;;;;;;;;23.10;99.90;;;;;;5056805;28;19931;-80
2021/08/11 07:42:55;;;;;;;;;;;22.80;99.90;;;;;;5057885;28;20066;-81
2021/08/11 07:45:22;;;;;;;;;;;21.80;99.90;;;;;;5056635;28;19990;-80
2021/08/11 07:47:48;;;;;;;;;;;21.60;99.90;;;;;;5055784;28;19912;-80
2021/08/11 07:50:15;;;;;;;;;;;21.70;99.90;;;;;;5057674;28;19931;-80
2021/08/11 07:52:40;;;;;;;;;;;22.20;99.90;;;;;;5057823;28;19908;-81
2021/08/11 07:55:07;;;;;;;;;;;22.60;99.90;;;;;;5055708;28;19905;-80
2021/08/11 07:57:32;;;;;;;;;;;22.70;99.90;;;;;;5055360;28;19946;-80
2021/08/11 07:59:59;;;;;;;;;;;23.80;99.90;;;;;;5056313;28;20281;-80
2021/08/11 08:02:25;;;;;;;;;;;23.30;99.90;;;;;;5055766;28;20336;-80
2021/08/11 08:04:51;;;;;;;;;;;23.20;99.90;;;;;;5053618;28;19905;-80
2021/08/11 08:07:17;;;;;;;;;;;22.80;99.90;;;;;;5054734;28;19905;-79
2021/08/11 08:09:42;;;;;;;;;;;22.60;99.90;;;;;;5054202;28;19911;-79
2021/08/11 08:12:08;;;;;;;;;;;21.40;99.90;;;;;;5053725;28;19908;-81
2021/08/11 08:14:34;;;;;;;;;;;21.10;99.90;;;;;;5054672;28;19919;-80
2021/08/11 08:16:59;;;;;;;;;;;21.60;99.90;;;;;;5053686;28;19948;-80
2021/08/11 08:19:25;;;;;;;;;;;21.70;99.90;;;;;;5054557;28;19954;-80
2021/08/11 08:21:54;;;;;;;;;;;21.80;99.90;;;;;;5055323;28;19909;-80
2021/08/11 08:24:19;;;;;;;;;;;22.00;99.90;;;;;;5054772;28;20256;-80
2021/08/11 08:26:45;;;;;;;;;;;22.50;99.90;;;;;;5055907;28;19905;-80
2021/08/11 08:29:10;;;;;;;;;;;21.70;99.90;;;;;;5054275;28;19904;-80
2021/08/11 08:31:36;;;;;;;;;;;21.60;99.90;;;;;;5056031;28;19909;-81
2021/08/11 08:34:02;;;;;;;;;;;22.10;99.90;;;;;;5053303;28;19908;-79
2021/08/11 08:36:27;;;;;;;;;;;22.10;99.90;;;;;;5056405;28;20373;-81
2021/08/11 08:38:53;;;;;;;;;;;21.30;99.90;;;;;;5055500;28;19920;-79
2021/08/11 08:41:18;;;;;;;;;;;20.80;99.90;;;;;;5053657;28;19905;-81
2021/08/11 08:43:44;;;;;;;;;;;21.20;99.90;;;;;;5056025;28;20360;-81
2021/08/11 08:46:10;;;;;;;;;;;21.10;99.90;;;;;;5055115;28;19915;-80
2021/08/11 08:48:42;;;;;;;;;;;21.40;99.90;;;;;;5055595;28;19988;-80
2021/08/11 08:51:13;;;;;;;;;;;22.00;99.90;;;;;;5053574;28;19917;-80
2021/08/11 08:53:46;;;;;;;;;;;22.50;99.90;;;;;;5054725;28;19990;-80
2021/08/11 08:56:11;;;;;;;;;;;22.20;99.90;;;;;;5053203;28;19912;-80
2021/08/11 08:58:37;;;;;;;;;;;21.60;99.90;;;;;;5053335;28;19935;-80
2021/08/11 09:01:03;;;;;;;;;;;21.80;99.90;;;;;;5055251;28;20364;-81
2021/08/11 09:03:28;;;;;;;;;;;21.80;99.90;;;;;;5054274;28;20408;-81
2021/08/11 09:05:54;;;;;;;;;;;22.00;99.90;;;;;;5054534;28;19904;-81
2021/08/11 09:08:19;;;;;;;;;;;22.50;99.90;;;;;;5055118;28;20177;-79
2021/08/11 09:10:45;;;;;;;;;;;23.20;99.90;;;;;;5053929;28;19955;-81
2021/08/11 09:13:14;;;;;;;;;;;23.70;99.90;;;;;;5056734;28;19971;-81
2021/08/11 09:15:45;;;;;;;;;;;22.90;99.90;;;;;;5053381;28;19919;-80
2021/08/11 09:18:17;;;;;;;;;;;22.00;99.90;;;;;;5057583;28;19917;-81
2021/08/11 09:20:44;;;;;;;;;;;21.60;99.90;;;;;;5059918;28;19943;-80
2021/08/11 09:23:10;;;;;;;;;;;21.80;99.90;;;;;;5059102;28;19905;-81
2021/08/11 09:25:54;;;;;;;;;;;21.70;99.90;;;;;;5056023;28;20384;-80
2021/08/11 09:28:20;;;;;;;;;;;21.80;99.90;;;;;;5057160;28;19911;-80
2021/08/11 09:30:45;;;;;;;;;;;22.30;99.90;;;;;;5059375;28;19904;-80
2021/08/11 09:33:11;;;;;;;;;;;22.80;99.90;;;;;;5061150;28;20417;-81
2021/08/11 09:35:40;;;;;;;;;;;22.90;99.90;;;;;;5057620;28;20109;-81
2021/08/11 09:38:10;;;;;;;;;;;23.10;99.90;;;;;;5058261;28;20362;-80
2021/08/11 09:40:36;;;;;;;;;;;24.30;99.90;;;;;;5057225;28;19958;-80
2021/08/11 09:43:06;;;;;;;;;;;24.20;99.90;;;;;;5057300;28;19905;-81
2021/08/11 09:45:45;;;;;;;;;;;23.10;99.90;;;;;;5057529;28;19920;-80
2021/08/11 09:48:11;;;;;;;;;;;23.10;99.90;;;;;;5058885;28;19919;-80
2021/08/11 09:50:45;;;;;;;;;;;23.40;99.90;;;;;;5058103;28;19904;-81
2021/08/11 09:53:11;;;;;;;;;;;23.70;99.90;;;;;;5058784;28;20281;-80
2021/08/11 09:55:53;;;;;;;;;;;23.90;99.90;;;;;;5058741;28;20000;-80
2021/08/11 09:58:19;;;;;;;;;;;24.30;99.90;;;;;;5058937;28;19915;-80
2021/08/11 10:00:45;;;;;;;;;;;23.40;99.90;;;;;;5057805;28;19905;-80
2021/08/11 10:03:10;;;;;;;;;;;23.50;99.90;;;;;;5059287;28;19908;-80
2021/08/11 10:05:36;;;;;;;;;;;23.70;99.90;;;;;;5058757;28;19942;-81
2021/08/11 10:08:03;;;;;;;;;;;23.80;99.90;;;;;;5058078;28;20439;-81
2021/08/11 10:10:28;;;;;;;;;;;23.90;99.90;;;;;;5059021;28;20361;-81
2021/08/11 10:12:54;;;;;;;;;;;23.80;99.90;;;;;;5058973;28;19950;-80
2021/08/11 10:15:20;;;;;;;;;;;23.90;99.90;;;;;;5058549;28;19966;-81
2021/08/11 10:17:48;;;;;;;;;;;23.60;99.90;;;;;;5058095;28;20008;-81
2021/08/11 10:20:16;;;;;;;;;;;23.20;99.90;;;;;;5060436;28;19944;-81
2021/08/11 10:22:43;;;;;;;;;;;22.80;99.90;;;;;;5059194;28;19905;-80
2021/08/11 10:25:08;;;;;;;;;;;23.00;99.90;;;;;;5060959;28;19904;-81
2021/08/11 10:27:34;;;;;;;;;;;22.90;99.90;;;;;;5059575;28;20424;-81
2021/08/11 10:30:00;;;;;;;;;;;22.60;99.90;;;;;;5057585;28;19911;-81
2021/08/11 10:32:25;;;;;;;;;;;22.40;99.90;;;;;;5057421;28;19912;-81
2021/08/11 10:34:57;;;;;;;;;;;22.20;99.90;;;;;;5061016;28;19937;-80
2021/08/11 10:37:24;;;;;;;;;;;22.80;99.90;;;;;;5057799;28;20400;-81
2021/08/11 10:39:50;;;;;;;;;;;22.40;99.90;;;;;;5060368;28;19905;-80
2021/08/11 10:42:16;;;;;;;;;;;22.40;99.90;;;;;;5060099;28;19904;-81
2021/08/11 10:44:42;;;;;;;;;;;23.00;99.90;;;;;;5060818;28;20471;-80
2021/08/11 10:47:09;;;;;;;;;;;23.60;99.90;;;;;;5060208;28;19927;-80
2021/08/11 10:50:10;;;;;;;;;;;23.10;99.90;;;;;;5059449;28;19904;-81
2021/08/11 10:52:35;;;;;;;;;;;23.10;99.90;;;;;;5021449;28;19905;-81
2021/08/11 10:55:03;;;;;;;;;;;23.60;99.90;;;;;;5050656;28;19908;-80
2021/08/11 10:57:38;;;;;;;;;;;24.10;99.90;;;;;;5058713;28;19912;-81
2021/08/11 11:00:07;;;;;;;;;;;23.70;99.90;;;;;;5057667;28;19911;-81
2021/08/11 11:02:39;;;;;;;;;;;23.10;99.90;;;;;;5059187;28;19905;-81
2021/08/11 11:05:05;;;;;;;;;;;23.50;99.90;;;;;;5055858;28;19911;-82
2021/08/11 11:07:31;;;;;;;;;;;24.70;99.90;;;;;;5054868;28;19912;-80
2021/08/11 11:10:23;;;;;;;;;;;24.90;99.90;;;;;;5058586;28;20380;-80
2021/08/11 11:12:48;;;;;;;;;;;24.90;99.90;;;;;;5056044;28;20267;-80
2021/08/11 11:15:14;;;;;;;;;;;25.00;99.90;;;;;;5056108;28;19924;-80
2021/08/11 11:17:58;;;;;;;;;;;24.80;99.90;;;;;;5056185;28;19920;-79
2021/08/11 11:20:24;;;;;;;;;;;25.10;99.90;;;;;;5056618;28;19940;-80
2021/08/11 11:22:51;;;;;;;;;;;25.10;99.90;;;;;;5058465;28;20381;-81
2021/08/11 11:25:19;;;;;;;;;;;24.90;99.90;;;;;;5057250;28;20319;-80
2021/08/11 11:27:44;;;;;;;;;;;24.90;99.90;;;;;;5054593;28;20007;-80
2021/08/11 11:30:12;;;;;;;;;;;24.80;99.90;;;;;;5055201;28;20014;-80
2021/08/11 11:32:38;;;;;;;;;;;25.10;99.90;;;;;;5057963;28;19905;-80
2021/08/11 11:35:13;;;;;;;;;;;25.40;99.90;;;;;;5055159;28;19912;-81
2021/08/11 11:37:38;;;;;;;;;;;25.90;99.90;;;;;;5056433;28;19912;-80
2021/08/11 11:40:06;;;;;;;;;;;25.60;99.90;;;;;;5056329;28;20293;-80
2021/08/11 11:42:31;;;;;;;;;;;25.70;99.90;;;;;;5054647;28;20380;-80
2021/08/11 11:44:58;;;;;;;;;;;26.10;99.90;;;;;;5055003;28;19904;-80
2021/08/11 11:47:43;;;;;;;;;;;27.40;99.00;;;;;;5055032;28;19904;-80
2021/08/11 11:50:21;;;;;;;;;;;27.40;99.40;;;;;;5055617;28;19913;-80
2021/08/11 11:52:50;;;;;;;;;;;27.20;98.20;;;;;;5055619;28;19931;-80
2021/08/11 11:55:26;;;;;;;;;;;27.70;99.00;;;;;;5055422;28;19904;-80
2021/08/11 11:57:55;;;;;;;;;;;28.00;97.90;;;;;;5056241;28;19978;-80
2021/08/11 12:00:20;;;;;;;;;;;27.10;98.00;;;;;;5054610;28;19908;-80
2021/08/11 12:02:50;;;;;;;;;;;26.90;98.20;;;;;;5057442;28;19935;-81
2021/08/11 12:05:16;;;;;;;;;;;27.10;98.80;;;;;;5056359;28;19911;-81
2021/08/11 12:07:41;;;;;;;;;;;27.00;97.50;;;;;;5056391;28;19908;-80
2021/08/11 12:10:07;;;;;;;;;;;26.70;98.30;;;;;;5057690;28;19904;-81
2021/08/11 12:12:33;;;;;;;;;;;26.80;97.90;;;;;;5056335;28;19913;-80
2021/08/11 12:15:21;;;;;;;;;;;26.30;98.80;;;;;;5054620;28;19913;-80
2021/08/11 12:17:47;;;;;;;;;;;27.10;99.30;;;;;;5056776;28;19920;-80
2021/08/11 12:20:25;;;;;;;;;;;27.80;97.70;;;;;;5054502;28;19904;-80
2021/08/11 12:22:50;;;;;;;;;;;26.90;97.60;;;;;;5056523;28;19983;-81
2021/08/11 12:25:23;;;;;;;;;;;26.80;98.00;;;;;;5056642;28;19950;-81
2021/08/11 12:28:25;;;;;;;;;;;26.10;98.30;;;;;;5058231;28;19913;-80
2021/08/11 12:31:01;;;;;;;;;;;26.90;98.40;;;;;;5019614;28;19948;-82
2021/08/11 12:33:28;;;;;;;;;;;27.10;97.10;;;;;;5050065;28;20394;-81
2021/08/11 12:35:53;;;;;;;;;;;27.40;96.50;;;;;;5053319;28;19913;-80
2021/08/11 12:38:26;;;;;;;;;;;26.90;96.50;;;;;;5054726;28;20266;-81
2021/08/11 12:40:53;;;;;;;;;;;25.80;97.80;;;;;;5057616;28;19951;-81
2021/08/11 12:43:18;;;;;;;;;;;26.70;97.40;;;;;;5057334;28;19912;-81
2021/08/11 12:45:48;;;;;;;;;;;27.90;95.20;;;;;;5057646;28;19912;-80
2021/08/11 12:48:24;;;;;;;;;;;27.50;95.60;;;;;;5058428;28;19909;-80
2021/08/11 12:50:50;;;;;;;;;;;28.10;94.60;;;;;;5057684;28;19909;-81
2021/08/11 12:53:28;;;;;;;;;;;27.80;94.40;;;;;;5058665;28;19908;-80
2021/08/11 12:56:11;;;;;;;;;;;28.00;94.10;;;;;;5059377;28;19912;-80
2021/08/11 12:58:55;;;;;;;;;;;28.50;93.50;;;;;;5058565;28;19917;-80
2021/08/11 13:01:41;;;;;;;;;;;28.80;92.90;;;;;;5058041;28;19904;-81
2021/08/11 13:04:07;;;;;;;;;;;27.40;92.20;;;;;;5057202;28;19909;-80
2021/08/11 13:06:32;;;;;;;;;;;27.00;94.10;;;;;;5057513;28;19912;-81
2021/08/11 13:08:58;;;;;;;;;;;26.90;94.20;;;;;;5057541;28;19913;-80
2021/08/11 13:11:23;;;;;;;;;;;26.60;93.80;;;;;;5057435;28;19908;-79
2021/08/11 13:13:50;;;;;;;;;;;26.40;94.40;;;;;;5056878;28;19909;-80
2021/08/11 13:16:16;;;;;;;;;;;27.60;93.10;;;;;;5056966;28;19917;-80
2021/08/11 13:18:42;;;;;;;;;;;27.30;93.00;;;;;;5056682;28;19956;-80
2021/08/11 13:21:08;;;;;;;;;;;27.60;93.50;;;;;;5057644;28;19912;-80
2021/08/11 13:23:36;;;;;;;;;;;28.60;92.30;;;;;;5058482;28;20277;-80
2021/08/11 13:26:02;;;;;;;;;;;29.10;90.80;;;;;;5057899;28;19904;-81
2021/08/11 13:28:27;;;;;;;;;;;29.50;91.70;;;;;;5059847;28;20368;-80
2021/08/11 13:30:53;;;;;;;;;;;29.60;90.60;;;;;;5059523;28;19905;-81
2021/08/11 13:33:19;;;;;;;;;;;28.60;91.10;;;;;;5058185;28;19913;-80
2021/08/11 13:35:45;;;;;;;;;;;28.60;91.50;;;;;;5056693;28;19904;-81
2021/08/11 13:38:11;;;;;;;;;;;29.60;91.00;;;;;;5057860;28;19912;-80
2021/08/11 13:40:37;;;;;;;;;;;28.70;91.60;;;;;;5057403;28;19908;-80
2021/08/11 13:43:02;;;;;;;;;;;27.90;92.10;;;;;;5054843;28;19931;-79
2021/08/11 13:45:28;;;;;;;;;;;27.40;92.80;;;;;;5056928;28;19947;-80
2021/08/11 13:47:54;;;;;;;;;;;27.20;93.80;;;;;;5056906;28;19905;-80
2021/08/11 13:50:20;;;;;;;;;;;26.70;94.40;;;;;;5057236;28;19909;-80
2021/08/11 13:52:45;;;;;;;;;;;27.70;93.30;;;;;;5057717;28;19905;-80
2021/08/11 13:55:11;;;;;;;;;;;28.40;93.00;;;;;;5057288;28;19909;-79
2021/08/11 13:57:38;;;;;;;;;;;28.10;93.00;;;;;;5056290;28;19909;-80
2021/08/11 14:00:04;;;;;;;;;;;28.50;92.00;;;;;;5054980;28;20136;-81
2021/08/11 14:02:30;;;;;;;;;;;28.90;92.20;;;;;;5057457;28;19911;-81
2021/08/11 14:04:56;;;;;;;;;;;27.60;93.00;;;;;;5059620;28;19905;-80
2021/08/11 14:07:21;;;;;;;;;;;28.30;92.70;;;;;;5058426;28;19954;-80
2021/08/11 14:09:47;;;;;;;;;;;28.10;92.30;;;;;;5059192;28;19905;-80
2021/08/11 14:12:13;;;;;;;;;;;28.50;91.70;;;;;;5057843;28;19912;-80
2021/08/11 14:14:39;;;;;;;;;;;29.50;90.60;;;;;;5057718;28;19919;-80
2021/08/11 14:17:05;;;;;;;;;;;28.50;91.20;;;;;;5057545;28;19905;-80